createdAt,value
2023-01-19T00:00:18.965Z,18.15
2023-01-19T00:01:21.588Z,19.20
2023-01-19T00:02:24.194Z,16.23
2023-01-19T00:03:27.101Z,19.73
2023-01-19T00:04:29.437Z,17.42
2023-01-19T00:05:34.042Z,17.00
2023-01-19T00:06:36.682Z,17.63
2023-01-19T00:07:39.386Z,17.48
2023-01-19T00:08:44.845Z,16.85
2023-01-19T00:09:47.376Z,16.90
2023-01-19T00:10:53.312Z,18.15
2023-01-19T00:11:56.587Z,16.48
2023-01-19T00:12:59.619Z,17.95
2023-01-19T00:14:02.511Z,16.33
2023-01-19T00:15:05.757Z,15.77
2023-01-19T00:16:08.423Z,18.40
2023-01-19T00:17:11.086Z,15.80
2023-01-19T00:18:13.888Z,17.13
2023-01-19T00:19:16.792Z,16.77
2023-01-19T00:20:19.321Z,16.08
2023-01-19T00:21:22.502Z,17.92
2023-01-19T00:22:25.033Z,17.25
2023-01-19T00:23:27.721Z,16.25
2023-01-19T00:24:30.117Z,18.60
2023-01-19T00:25:32.791Z,16.92
2023-01-19T00:26:35.225Z,16.60
2023-01-19T00:27:37.660Z,16.52
2023-01-19T00:28:40.286Z,19.45
2023-01-19T00:29:42.808Z,18.05
2023-01-19T00:30:50.707Z,14.80
2023-01-19T00:31:55.767Z,17.15
2023-01-19T00:32:58.900Z,17.80
2023-01-19T00:34:02.524Z,18.65
2023-01-19T00:35:05.591Z,16.95
2023-01-19T00:36:08.656Z,15.90
2023-01-19T00:37:11.259Z,18.67
2023-01-19T00:38:14.125Z,18.25
2023-01-19T00:39:16.743Z,20.23
2023-01-19T00:40:19.367Z,17.63
2023-01-19T00:41:44.747Z,19.63
2023-01-19T00:42:48.656Z,17.80
2023-01-19T00:43:51.252Z,17.90
2023-01-19T00:44:53.711Z,18.25
2023-01-19T00:45:56.198Z,18.75
2023-01-19T00:46:58.841Z,16.52
2023-01-19T00:48:01.820Z,17.15
2023-01-19T00:49:05.096Z,17.33
2023-01-19T00:50:12.066Z,16.88
2023-01-19T00:51:14.560Z,16.25
2023-01-19T00:52:17.099Z,16.73
2023-01-19T00:53:20.646Z,17.33
2023-01-19T00:54:23.181Z,16.73
2023-01-19T00:55:25.972Z,13.20
2023-01-19T00:56:28.288Z,16.75
2023-01-19T00:57:31.086Z,19.10
2023-01-19T00:58:33.763Z,16.45
2023-01-19T00:59:42.455Z,16.73
2023-01-19T01:00:45.201Z,17.00
2023-01-19T01:01:47.874Z,15.45
2023-01-19T01:02:52.983Z,15.93
2023-01-19T01:03:56.191Z,16.73
2023-01-19T01:05:01.188Z,16.10
2023-01-19T01:06:04.713Z,18.02
2023-01-19T01:07:07.513Z,17.13
2023-01-19T01:08:10.138Z,16.92
2023-01-19T01:09:12.645Z,17.15
2023-01-19T01:10:24.572Z,16.38
2023-01-19T01:11:34.505Z,17.33
2023-01-19T01:12:37.945Z,17.80
2023-01-19T01:13:40.645Z,14.55
2023-01-19T01:14:43.157Z,18.45
2023-01-19T01:15:51.378Z,15.80
2023-01-19T01:16:53.908Z,17.20
2023-01-19T01:18:00.386Z,18.98
2023-01-19T01:19:03.835Z,17.80
2023-01-19T01:20:08.461Z,16.13
2023-01-19T01:21:13.151Z,17.88
2023-01-19T01:22:16.428Z,30.73
2023-01-19T01:23:23.129Z,49.28
2023-01-19T01:24:32.534Z,46.38
2023-01-19T01:25:37.961Z,33.55
2023-01-19T01:26:40.403Z,20.15
2023-01-19T01:27:43.461Z,17.42
2023-01-19T01:28:46.138Z,43.78
2023-01-19T01:29:49.004Z,27.85
2023-01-19T01:30:55.969Z,19.40
2023-01-19T01:31:58.823Z,16.88
2023-01-19T01:33:04.395Z,23.83
2023-01-19T01:34:07.488Z,29.90
2023-01-19T01:35:11.508Z,21.60
2023-01-19T01:36:14.576Z,23.23
2023-01-19T01:37:17.586Z,17.45
2023-01-19T01:38:20.373Z,18.45
2023-01-19T01:39:23.154Z,18.70
2023-01-19T01:40:28.462Z,16.13
2023-01-19T01:41:33.920Z,16.55
2023-01-19T01:42:36.678Z,14.00
2023-01-19T01:44:02.208Z,14.88
2023-01-19T01:45:38.549Z,16.13
2023-01-19T01:46:41.267Z,13.60
2023-01-19T01:47:47.441Z,13.18
2023-01-19T01:49:08.809Z,16.48
2023-01-19T01:50:19.844Z,13.60
2023-01-19T01:51:44.980Z,14.18
2023-01-19T01:53:07.298Z,15.95
2023-01-19T01:54:20.080Z,18.50
2023-01-19T01:55:28.024Z,14.77
2023-01-19T01:56:45.707Z,13.80
2023-01-19T01:57:57.746Z,15.68
2023-01-19T01:59:03.362Z,15.63
2023-01-19T02:00:10.168Z,16.73
2023-01-19T02:01:32.499Z,17.80
2023-01-19T02:02:52.212Z,15.90
2023-01-19T02:03:56.205Z,16.83
2023-01-19T02:05:16.451Z,15.30
2023-01-19T02:06:21.852Z,14.82
2023-01-19T02:07:52.149Z,14.23
2023-01-19T02:09:22.411Z,16.67
2023-01-19T02:10:43.747Z,15.27
2023-01-19T02:12:06.018Z,16.40
2023-01-19T02:13:18.768Z,15.93
2023-01-19T02:14:21.760Z,14.35
2023-01-19T02:15:24.513Z,14.73
2023-01-19T02:16:27.439Z,16.15
2023-01-19T02:17:30.122Z,15.70
2023-01-19T02:18:33.704Z,14.70
2023-01-19T02:19:42.251Z,15.07
2023-01-19T02:21:13.200Z,15.43
2023-01-19T02:22:38.804Z,14.90
2023-01-19T02:23:47.542Z,15.43
2023-01-19T02:24:54.203Z,17.08
2023-01-19T02:25:56.921Z,17.50
2023-01-19T02:27:00.385Z,16.20
2023-01-19T02:28:03.746Z,17.48
2023-01-19T02:29:12.259Z,16.17
2023-01-19T02:30:16.935Z,16.17
2023-01-19T02:31:20.288Z,15.20
2023-01-19T02:32:22.915Z,14.93
2023-01-19T02:33:25.710Z,15.45
2023-01-19T02:34:28.905Z,14.88
2023-01-19T02:35:35.818Z,21.02
2023-01-19T02:36:56.183Z,15.98
2023-01-19T02:37:59.375Z,15.00
2023-01-19T02:39:03.716Z,14.73
2023-01-19T02:40:12.784Z,15.05
2023-01-19T02:41:21.672Z,15.43
2023-01-19T02:42:37.362Z,16.13
2023-01-19T02:43:42.038Z,14.75
2023-01-19T02:44:48.550Z,16.63
2023-01-19T02:45:51.646Z,14.35
2023-01-19T02:46:55.149Z,17.38
2023-01-19T02:47:57.821Z,16.38
2023-01-19T02:49:01.910Z,16.02
2023-01-19T02:50:04.839Z,14.40
2023-01-19T02:51:25.446Z,15.15
2023-01-19T02:52:28.474Z,15.27
2023-01-19T02:53:33.769Z,14.80
2023-01-19T02:54:47.093Z,14.00
2023-01-19T02:55:57.478Z,16.10
2023-01-19T02:57:39.447Z,13.85
2023-01-19T02:58:58.385Z,14.80
2023-01-19T03:00:22.254Z,17.38
2023-01-19T03:02:02.298Z,15.35
2023-01-19T03:03:30.899Z,15.35
2023-01-19T03:04:58.271Z,15.65
2023-01-19T03:06:18.522Z,14.15
2023-01-19T03:07:32.091Z,14.85
2023-01-19T03:09:04.740Z,14.63
2023-01-19T03:10:13.216Z,15.25
2023-01-19T03:11:16.640Z,13.50
2023-01-19T03:12:36.352Z,16.25
2023-01-19T03:13:50.836Z,15.35
2023-01-19T03:14:58.767Z,14.15
2023-01-19T03:16:45.107Z,15.30
2023-01-19T03:17:50.061Z,15.98
2023-01-19T03:18:56.987Z,15.80
2023-01-19T03:20:00.411Z,16.48
2023-01-19T03:21:06.660Z,16.65
2023-01-19T03:22:13.617Z,15.95
2023-01-19T03:23:37.300Z,15.13
2023-01-19T03:24:48.226Z,15.07
2023-01-19T03:25:53.337Z,15.48
2023-01-19T03:27:01.636Z,17.63
2023-01-19T03:28:05.083Z,18.15
2023-01-19T03:29:09.483Z,16.92
2023-01-19T03:30:18.800Z,16.85
2023-01-19T03:31:24.683Z,15.95
2023-01-19T03:32:36.570Z,16.63
2023-01-19T03:33:44.517Z,16.40
2023-01-19T03:34:48.522Z,14.52
2023-01-19T03:35:57.819Z,14.55
2023-01-19T03:37:04.175Z,15.98
2023-01-19T03:38:15.329Z,16.60
2023-01-19T03:39:23.840Z,15.60
2023-01-19T03:40:32.322Z,14.00
2023-01-19T03:41:37.901Z,15.23
2023-01-19T03:42:41.504Z,13.60
2023-01-19T03:43:45.258Z,13.73
2023-01-19T03:44:50.854Z,15.50
2023-01-19T03:45:55.294Z,12.73
2023-01-19T03:48:02.315Z,13.88
2023-01-19T03:49:05.208Z,12.48
2023-01-19T03:50:15.380Z,15.27
2023-01-19T03:51:19.652Z,14.88
2023-01-19T03:52:30.439Z,14.88
2023-01-19T03:53:32.879Z,15.10
2023-01-19T03:54:35.552Z,15.38
2023-01-19T03:55:40.781Z,12.52
2023-01-19T03:56:44.831Z,12.32
2023-01-19T03:57:49.547Z,12.70
2023-01-19T03:58:52.497Z,12.35
2023-01-19T03:59:56.093Z,15.07
2023-01-19T04:00:58.703Z,12.88
2023-01-19T04:02:01.453Z,13.63
2023-01-19T04:03:05.526Z,14.32
2023-01-19T04:04:08.592Z,10.73
2023-01-19T04:05:11.299Z,11.80
2023-01-19T04:06:14.224Z,16.27
2023-01-19T04:07:17.074Z,14.57
2023-01-19T04:08:19.767Z,14.88
2023-01-19T04:09:22.932Z,12.82
2023-01-19T04:10:25.594Z,13.45
2023-01-19T04:11:28.716Z,18.35
2023-01-19T04:12:31.292Z,15.15
2023-01-19T04:13:34.196Z,15.13
2023-01-19T04:14:39.292Z,16.48
2023-01-19T04:15:42.150Z,14.77
2023-01-19T04:16:48.444Z,12.70
2023-01-19T04:17:51.040Z,13.45
2023-01-19T04:18:53.736Z,13.68
2023-01-19T04:19:56.206Z,14.93
2023-01-19T04:21:02.378Z,16.40
2023-01-19T04:22:09.114Z,11.60
2023-01-19T04:23:11.886Z,12.35
2023-01-19T04:24:14.300Z,12.32
2023-01-19T04:25:16.937Z,12.50
2023-01-19T04:26:19.952Z,11.68
2023-01-19T04:27:22.642Z,11.85
2023-01-19T04:28:26.255Z,10.85
2023-01-19T04:29:28.754Z,11.23
2023-01-19T04:30:31.875Z,11.43
2023-01-19T04:31:35.909Z,11.73
2023-01-19T04:32:38.550Z,11.18
2023-01-19T04:33:41.220Z,11.30
2023-01-19T04:34:44.163Z,12.45
2023-01-19T04:35:47.831Z,10.57
2023-01-19T04:36:51.772Z,10.10
2023-01-19T04:37:54.844Z,10.73
2023-01-19T04:38:57.448Z,10.85
2023-01-19T04:40:00.038Z,12.45
2023-01-19T04:41:02.677Z,9.57
2023-01-19T04:42:06.582Z,11.98
2023-01-19T04:43:10.037Z,10.73
2023-01-19T04:44:14.936Z,10.30
2023-01-19T04:45:17.667Z,10.93
2023-01-19T04:46:20.290Z,10.07
2023-01-19T04:47:23.001Z,9.98
2023-01-19T04:48:25.748Z,11.80
2023-01-19T04:49:28.429Z,10.98
2023-01-19T04:50:32.528Z,11.73
2023-01-19T04:51:35.809Z,9.50
2023-01-19T04:52:38.998Z,9.63
2023-01-19T04:53:41.546Z,10.25
2023-01-19T04:54:44.204Z,11.73
2023-01-19T04:55:46.990Z,11.80
2023-01-19T04:56:50.053Z,8.77
2023-01-19T04:57:52.506Z,9.57
2023-01-19T04:58:55.047Z,10.15
2023-01-19T04:59:58.491Z,8.85
2023-01-19T05:01:01.034Z,10.88
2023-01-19T05:02:03.906Z,9.20
2023-01-19T05:03:06.596Z,12.93
2023-01-19T05:04:09.363Z,8.68
2023-01-19T05:05:12.337Z,7.63
2023-01-19T05:06:15.061Z,11.05
2023-01-19T05:07:17.892Z,11.57
2023-01-19T05:08:20.649Z,9.27
2023-01-19T05:09:23.055Z,9.07
2023-01-19T05:10:25.692Z,10.82
2023-01-19T05:11:28.151Z,11.32
2023-01-19T05:12:30.782Z,8.07
2023-01-19T05:13:33.789Z,11.32
2023-01-19T05:14:41.823Z,10.95
2023-01-19T05:15:45.409Z,9.90
2023-01-19T05:16:47.922Z,9.25
2023-01-19T05:17:50.606Z,8.50
2023-01-19T05:18:53.221Z,7.65
2023-01-19T05:19:55.803Z,11.38
2023-01-19T05:20:58.583Z,8.82
2023-01-19T05:22:05.644Z,9.18
2023-01-19T05:23:09.482Z,9.25
2023-01-19T05:24:12.240Z,10.23
2023-01-19T05:25:14.959Z,9.95
2023-01-19T05:26:19.913Z,10.60
2023-01-19T05:27:22.676Z,9.88
2023-01-19T05:28:25.120Z,10.80
2023-01-19T05:29:30.313Z,9.30
2023-01-19T05:30:32.789Z,10.70
2023-01-19T05:31:36.267Z,10.48
2023-01-19T05:32:38.963Z,8.82
2023-01-19T05:33:41.508Z,9.45
2023-01-19T05:34:44.148Z,9.25
2023-01-19T05:35:53.125Z,9.23
2023-01-19T05:36:58.295Z,8.63
2023-01-19T05:38:01.111Z,8.82
2023-01-19T05:39:04.204Z,8.30
2023-01-19T05:40:07.422Z,8.65
2023-01-19T05:41:10.053Z,9.65
2023-01-19T05:42:12.627Z,8.40
2023-01-19T05:43:15.765Z,9.27
2023-01-19T05:44:18.462Z,7.20
2023-01-19T05:45:23.871Z,7.57
2023-01-19T05:46:29.430Z,9.40
2023-01-19T05:47:32.895Z,9.70
2023-01-19T05:48:35.320Z,8.70
2023-01-19T05:49:37.948Z,8.23
2023-01-19T05:50:40.445Z,10.30
2023-01-19T05:51:45.566Z,8.88
2023-01-19T05:52:53.467Z,7.70
2023-01-19T05:53:56.371Z,8.45
2023-01-19T05:54:58.794Z,8.43
2023-01-19T05:56:06.498Z,8.50
2023-01-19T05:57:09.120Z,7.53
2023-01-19T05:58:11.582Z,10.23
2023-01-19T05:59:17.841Z,7.47
2023-01-19T06:00:20.695Z,8.00
2023-01-19T06:01:30.517Z,9.15
2023-01-19T06:02:46.758Z,9.48
2023-01-19T06:04:52.072Z,7.82
2023-01-19T06:05:58.044Z,9.07
2023-01-19T06:07:00.855Z,12.10
2023-01-19T06:08:03.301Z,12.80
2023-01-19T06:09:05.757Z,10.00
2023-01-19T06:10:09.323Z,10.85
2023-01-19T06:11:12.727Z,8.35
2023-01-19T06:12:15.234Z,9.23
2023-01-19T06:13:18.622Z,9.73
2023-01-19T06:14:21.213Z,9.63
2023-01-19T06:15:23.810Z,9.20
2023-01-19T06:16:26.475Z,8.45
2023-01-19T06:17:29.163Z,11.10
2023-01-19T06:18:32.120Z,8.85
2023-01-19T06:19:35.228Z,9.32
2023-01-19T06:20:40.359Z,9.48
2023-01-19T06:21:43.531Z,8.82
2023-01-19T06:22:46.244Z,8.35
2023-01-19T06:23:48.731Z,9.68
2023-01-19T06:24:51.329Z,11.60
2023-01-19T06:25:53.928Z,11.65
2023-01-19T06:26:56.549Z,10.88
2023-01-19T06:27:59.237Z,9.95
2023-01-19T06:29:04.104Z,9.82
2023-01-19T06:30:07.342Z,9.52
2023-01-19T06:31:10.250Z,10.82
2023-01-19T06:32:13.719Z,10.00
2023-01-19T06:33:17.301Z,9.52
2023-01-19T06:34:20.281Z,8.77
2023-01-19T06:35:22.796Z,8.13
2023-01-19T06:36:25.314Z,7.65
2023-01-19T06:37:30.724Z,7.55
2023-01-19T06:38:33.378Z,7.03
2023-01-19T06:39:38.006Z,8.98
2023-01-19T06:40:41.683Z,7.18
2023-01-19T06:41:44.242Z,7.03
2023-01-19T06:42:46.822Z,6.80
2023-01-19T06:43:58.204Z,7.25
2023-01-19T06:45:10.389Z,6.72
2023-01-19T06:47:15.011Z,7.85
2023-01-19T06:49:07.350Z,6.43
2023-01-19T06:50:33.172Z,6.65
2023-01-19T06:52:06.065Z,6.70
2023-01-19T06:53:44.389Z,9.30
2023-01-19T06:56:28.364Z,7.22
2023-01-19T06:57:53.330Z,6.90
2023-01-19T06:59:22.932Z,6.63
2023-01-19T07:01:13.276Z,6.80
2023-01-19T07:11:34.899Z,11.70
2023-01-19T07:18:24.886Z,10.00
2023-01-19T07:24:36.717Z,9.90
2023-01-19T07:28:38.707Z,14.10
2023-01-19T07:32:15.055Z,12.23
2023-01-19T07:44:33.179Z,11.30
2023-01-19T07:46:01.704Z,16.52
2023-01-19T07:47:34.421Z,12.15
2023-01-19T07:49:03.803Z,13.55
2023-01-19T07:50:47.440Z,14.45
2023-01-19T08:00:07.089Z,21.00
2023-01-19T08:03:37.699Z,24.10
2023-01-19T08:16:15.037Z,19.52
2023-01-19T08:19:22.091Z,21.85
2023-01-19T08:21:20.631Z,23.67
2023-01-19T08:29:07.290Z,12.80
2023-01-19T08:33:24.343Z,13.55
2023-01-19T08:42:38.260Z,21.65
2023-01-19T08:44:05.955Z,28.90
2023-01-19T08:46:38.192Z,20.88
2023-01-19T08:48:39.923Z,37.85
2023-01-19T08:50:46.361Z,23.65
2023-01-19T08:53:13.325Z,20.00
2023-01-19T08:54:24.736Z,21.02
2023-01-19T08:59:43.361Z,15.73
2023-01-19T09:01:00.420Z,16.63
2023-01-19T09:02:29.804Z,14.75
2023-01-19T09:03:49.945Z,16.83
2023-01-19T09:05:07.229Z,19.60
2023-01-19T09:06:11.389Z,25.27
2023-01-19T09:07:14.345Z,24.10
2023-01-19T09:08:22.632Z,20.15
2023-01-19T09:09:29.314Z,18.02
2023-01-19T09:10:49.281Z,18.48
2023-01-19T09:11:55.930Z,15.35
2023-01-19T09:13:08.879Z,16.48
2023-01-19T09:14:39.574Z,15.43
2023-01-19T09:15:44.913Z,12.35
2023-01-19T09:17:09.522Z,13.43
2023-01-19T09:18:24.388Z,13.93
2023-01-19T09:20:04.243Z,15.23
2023-01-19T09:21:18.503Z,15.60
2023-01-19T09:22:48.372Z,18.45
2023-01-19T09:24:06.566Z,16.02
2023-01-19T09:27:40.610Z,13.30
2023-01-19T09:31:02.877Z,11.98
2023-01-19T09:32:35.145Z,15.75
2023-01-19T09:34:18.350Z,14.73
2023-01-19T09:35:45.298Z,14.65
2023-01-19T09:37:05.472Z,12.27
2023-01-19T09:38:42.816Z,13.73
2023-01-19T09:41:14.364Z,14.07
2023-01-19T09:42:50.347Z,15.52
2023-01-19T09:44:17.853Z,12.15
2023-01-19T09:45:49.252Z,17.80
2023-01-19T09:46:54.723Z,18.50
2023-01-19T09:48:27.135Z,15.07
2023-01-19T09:49:39.955Z,8.85
2023-01-19T09:52:12.763Z,7.70
2023-01-19T09:53:29.897Z,10.05
2023-01-19T09:55:01.140Z,8.25
2023-01-19T09:56:04.037Z,7.40
2023-01-19T09:57:25.119Z,8.40
2023-01-19T09:58:32.303Z,7.32
2023-01-19T09:59:37.394Z,7.85
2023-01-19T10:00:50.382Z,6.60
2023-01-19T10:02:30.889Z,8.13
2023-01-19T10:03:41.778Z,8.98
2023-01-19T10:04:58.464Z,9.25
2023-01-19T10:06:17.745Z,8.65
2023-01-19T10:07:54.825Z,8.32
2023-01-19T10:09:33.249Z,13.15
2023-01-19T10:11:03.074Z,19.30
2023-01-19T10:12:22.624Z,20.52
2023-01-19T10:13:50.274Z,22.65
2023-01-19T10:15:25.459Z,17.92
2023-01-19T10:16:50.007Z,13.25
2023-01-19T10:18:17.504Z,17.48
2023-01-19T10:19:44.613Z,11.27
2023-01-19T10:22:29.234Z,10.18
2023-01-19T10:23:48.446Z,10.98
2023-01-19T10:25:02.470Z,10.05
2023-01-19T10:26:40.261Z,7.93
2023-01-19T10:27:46.652Z,7.80
2023-01-19T10:29:01.155Z,8.93
2023-01-19T10:30:20.595Z,13.02
2023-01-19T10:31:28.350Z,14.27
2023-01-19T10:32:36.846Z,13.80
2023-01-19T10:33:42.334Z,12.23
2023-01-19T10:34:55.279Z,11.18
2023-01-19T10:36:04.970Z,8.55
2023-01-19T10:37:20.624Z,10.35
2023-01-19T10:38:34.100Z,8.77
2023-01-19T10:39:47.646Z,8.20
2023-01-19T10:41:04.850Z,8.57
2023-01-19T10:42:24.923Z,25.27
2023-01-19T10:43:37.747Z,22.67
2023-01-19T10:44:52.677Z,24.92
2023-01-19T10:45:57.998Z,23.63
2023-01-19T10:47:07.137Z,16.38
2023-01-19T10:48:19.864Z,12.80
2023-01-19T10:49:43.528Z,15.05
2023-01-19T10:50:46.663Z,10.55
2023-01-19T10:51:52.872Z,8.95
2023-01-19T10:53:12.601Z,9.00
2023-01-19T10:54:17.448Z,12.55
2023-01-19T10:55:26.559Z,9.98
2023-01-19T10:56:38.892Z,8.27
2023-01-19T10:57:46.408Z,6.15
2023-01-19T10:59:00.718Z,5.35
2023-01-19T11:00:31.872Z,6.20
2023-01-19T11:01:39.626Z,7.13
2023-01-19T11:04:59.278Z,13.68
2023-01-19T11:06:17.796Z,15.95
2023-01-19T11:07:22.096Z,20.38
2023-01-19T11:09:38.789Z,11.27
2023-01-19T11:10:42.149Z,9.52
2023-01-19T11:11:57.689Z,7.32
2023-01-19T11:13:23.351Z,10.50
2023-01-19T11:14:42.547Z,13.65
2023-01-19T11:15:51.609Z,12.43
2023-01-19T11:17:28.974Z,11.75
2023-01-19T11:19:39.777Z,24.85
2023-01-19T11:21:03.563Z,29.52
2023-01-19T11:22:30.916Z,24.10
2023-01-19T11:24:15.360Z,21.55
2023-01-19T11:25:48.248Z,17.83
2023-01-19T11:27:18.688Z,27.15
2023-01-19T11:28:39.302Z,26.50
2023-01-19T11:30:21.077Z,49.17
2023-01-19T11:31:36.689Z,34.45
2023-01-19T11:32:39.371Z,32.00
2023-01-19T11:33:49.791Z,39.15
2023-01-19T11:34:53.643Z,47.38
2023-01-19T11:36:05.208Z,60.40
2023-01-19T11:37:16.941Z,74.65
2023-01-19T11:38:23.705Z,36.65
2023-01-19T11:39:30.109Z,26.08
2023-01-19T11:40:36.627Z,23.10
2023-01-19T11:41:50.779Z,31.90
2023-01-19T11:42:53.534Z,33.28
2023-01-19T11:44:00.433Z,26.80
2023-01-19T11:45:15.557Z,21.42
2023-01-19T11:46:19.352Z,14.77
2023-01-19T11:47:43.716Z,19.30
2023-01-19T11:49:02.946Z,19.67
2023-01-19T11:50:29.852Z,24.38
2023-01-19T11:51:42.737Z,28.55
2023-01-19T11:52:54.787Z,26.75
2023-01-19T11:54:06.160Z,18.90
2023-01-19T11:55:22.825Z,22.80
2023-01-19T11:56:29.238Z,17.40
2023-01-19T11:57:34.635Z,17.63
2023-01-19T11:58:50.267Z,19.35
2023-01-19T11:59:55.650Z,17.25
2023-01-19T12:01:07.424Z,15.95
2023-01-19T12:02:42.986Z,18.42
2023-01-19T12:03:59.986Z,16.65
2023-01-19T12:05:07.743Z,18.42
2023-01-19T12:06:34.784Z,16.02
2023-01-19T12:07:38.881Z,15.63
2023-01-19T12:08:44.584Z,15.65
2023-01-19T12:09:51.866Z,13.32
2023-01-19T12:10:57.737Z,13.10
2023-01-19T12:12:06.793Z,15.65
2023-01-19T12:13:28.147Z,13.10
2023-01-19T12:14:51.725Z,15.93
2023-01-19T12:16:05.367Z,13.50
2023-01-19T12:17:21.863Z,11.68
2023-01-19T12:18:36.627Z,14.45
2023-01-19T12:20:15.370Z,14.38
2023-01-19T12:21:21.447Z,15.27
2023-01-19T12:22:24.571Z,17.33
2023-01-19T12:23:41.805Z,19.88
2023-01-19T12:25:01.975Z,22.35
2023-01-19T12:26:16.679Z,19.13
2023-01-19T12:27:32.415Z,32.17
2023-01-19T12:28:40.750Z,24.48
2023-01-19T12:29:44.529Z,28.25
2023-01-19T12:30:47.691Z,20.80
2023-01-19T12:32:14.734Z,15.63
2023-01-19T12:33:35.391Z,13.02
2023-01-19T12:34:48.906Z,13.07
2023-01-19T12:36:04.392Z,16.33
2023-01-19T12:37:36.411Z,14.30
2023-01-19T12:38:50.519Z,12.73
2023-01-19T12:40:05.769Z,10.45
2023-01-19T12:41:32.881Z,8.20
2023-01-19T12:42:35.700Z,10.30
2023-01-19T12:43:38.351Z,12.57
2023-01-19T12:44:42.559Z,12.32
2023-01-19T12:45:48.357Z,15.02
2023-01-19T12:46:58.771Z,16.15
2023-01-19T12:48:02.883Z,12.95
2023-01-19T12:49:39.235Z,13.35
2023-01-19T12:50:47.509Z,15.07
2023-01-19T12:51:52.756Z,14.30
2023-01-19T12:53:03.164Z,21.20
2023-01-19T12:54:08.538Z,15.55
2023-01-19T12:55:13.467Z,15.55
2023-01-19T12:56:18.236Z,12.45
2023-01-19T12:57:27.326Z,16.98
2023-01-19T12:58:30.059Z,13.93
2023-01-19T12:59:36.196Z,15.43
2023-01-19T13:00:43.423Z,15.27
2023-01-19T13:02:27.012Z,16.50
2023-01-19T13:03:32.304Z,11.77
2023-01-19T13:04:38.014Z,14.50
2023-01-19T13:05:41.451Z,12.00
2023-01-19T13:06:50.102Z,11.45
2023-01-19T13:08:07.516Z,13.13
2023-01-19T13:09:31.079Z,15.13
2023-01-19T13:12:36.139Z,19.13
2023-01-19T13:13:49.675Z,17.48
2023-01-19T13:15:32.456Z,13.02
2023-01-19T13:16:38.154Z,15.68
2023-01-19T13:17:53.981Z,13.27
2023-01-19T13:19:19.016Z,11.13
2023-01-19T13:20:31.770Z,9.23
2023-01-19T13:21:43.617Z,9.80
2023-01-19T13:22:49.933Z,12.63
2023-01-19T13:23:58.988Z,9.68
2023-01-19T13:26:23.591Z,11.45
2023-01-19T13:27:30.750Z,16.67
2023-01-19T13:28:41.961Z,22.90
2023-01-19T13:29:45.712Z,26.50
2023-01-19T13:30:58.372Z,31.88
2023-01-19T13:32:24.063Z,17.30
2023-01-19T13:33:43.352Z,17.98
2023-01-19T13:34:53.586Z,15.30
2023-01-19T13:35:59.151Z,16.25
2023-01-19T13:37:09.791Z,17.73
2023-01-19T13:38:25.062Z,20.52
2023-01-19T13:39:37.296Z,19.15
2023-01-19T13:40:43.289Z,21.25
2023-01-19T13:41:47.071Z,22.67
2023-01-19T13:42:52.007Z,28.33
2023-01-19T14:00:59.861Z,18.92
2023-01-19T14:02:18.426Z,19.33
2023-01-19T14:03:33.308Z,24.52
2023-01-19T14:19:04.844Z,29.52
2023-01-19T14:20:50.383Z,26.90
2023-01-19T15:15:40.011Z,55.63
2023-01-19T15:40:21.842Z,45.90
2023-01-19T15:44:31.431Z,42.35
2023-01-19T15:46:16.509Z,47.35
2023-01-19T15:48:52.559Z,38.92
2023-01-19T15:56:09.947Z,33.22
2023-01-19T15:56:56.895Z,24.77
2023-01-19T15:58:13.941Z,20.98
2023-01-19T15:59:28.951Z,25.98
2023-01-19T16:00:43.261Z,22.35
2023-01-19T16:02:16.224Z,30.75
2023-01-19T16:03:24.744Z,26.95
2023-01-19T16:06:05.808Z,19.42
2023-01-19T16:07:09.630Z,24.27
2023-01-19T16:08:15.758Z,22.38
2023-01-19T16:09:42.048Z,21.13
2023-01-19T16:11:33.284Z,23.27
2023-01-19T16:15:35.052Z,18.65
2023-01-19T16:16:53.234Z,21.85
2023-01-19T16:19:23.966Z,22.05
2023-01-19T16:22:17.134Z,20.60
2023-01-19T18:11:09.770Z,12.85
2023-01-19T18:42:35.055Z,14.07
2023-01-19T18:43:40.694Z,14.35
2023-01-19T18:44:44.879Z,13.23
2023-01-19T18:45:49.760Z,12.40
2023-01-19T18:46:55.951Z,12.88
2023-01-19T18:48:04.817Z,15.77
2023-01-19T18:49:10.516Z,13.50
2023-01-19T18:50:24.514Z,12.05
2023-01-19T18:51:38.686Z,7.10
2023-01-19T18:52:44.228Z,7.93
2023-01-19T18:53:48.839Z,10.98
2023-01-19T18:54:54.137Z,9.30
2023-01-19T18:56:05.032Z,10.52
2023-01-19T18:57:13.078Z,15.40
2023-01-19T18:58:20.354Z,14.15
2023-01-19T18:59:24.829Z,19.42
2023-01-19T19:00:30.094Z,12.32
2023-01-19T19:01:38.036Z,14.38
2023-01-19T19:02:42.628Z,16.05
2023-01-19T19:03:47.445Z,17.98
2023-01-19T19:04:55.836Z,19.42
2023-01-19T19:06:04.228Z,14.77
2023-01-19T19:07:09.324Z,12.98
2023-01-19T19:08:13.380Z,9.50
2023-01-19T19:09:18.896Z,11.65
2023-01-19T19:10:24.220Z,10.48
2023-01-19T19:11:29.256Z,8.65
2023-01-19T19:14:05.295Z,8.40
2023-01-19T19:15:11.724Z,12.65
2023-01-19T19:16:16.293Z,11.27
2023-01-19T19:18:28.180Z,9.40
2023-01-19T19:19:34.572Z,14.75
2023-01-19T19:20:46.131Z,14.43
2023-01-19T19:23:02.275Z,7.82
2023-01-19T19:24:25.353Z,8.77
2023-01-19T19:25:41.220Z,6.95
2023-01-19T19:27:21.827Z,8.40
2023-01-19T19:31:18.252Z,9.15
2023-01-19T19:34:16.045Z,10.23
2023-01-19T19:38:11.163Z,9.60
2023-01-19T19:39:15.672Z,10.13
2023-01-19T19:41:23.479Z,9.38
2023-01-19T19:44:39.050Z,10.15
2023-01-19T19:51:04.004Z,9.65
2023-01-19T20:00:38.125Z,10.07
2023-01-19T20:02:17.546Z,11.93
2023-01-19T20:03:39.763Z,11.65
2023-01-19T20:05:05.152Z,9.23
2023-01-19T20:06:30.252Z,13.32
2023-01-19T20:07:36.175Z,13.55
2023-01-19T20:08:44.743Z,15.13
2023-01-19T20:09:52.050Z,15.48
2023-01-19T20:11:03.306Z,15.45
2023-01-19T20:12:11.731Z,13.98
2023-01-19T20:13:23.947Z,13.93
2023-01-19T20:14:37.844Z,19.58
2023-01-19T20:15:46.715Z,22.13
2023-01-19T20:16:56.423Z,18.95
2023-01-19T20:18:02.146Z,15.45
2023-01-19T20:19:10.228Z,15.32
2023-01-19T20:20:15.221Z,12.20
2023-01-19T20:21:23.148Z,14.23
2023-01-19T20:22:28.296Z,13.45
2023-01-19T20:23:46.126Z,17.33
2023-01-19T20:24:56.017Z,12.45
2023-01-19T20:26:12.190Z,11.38
2023-01-19T20:27:20.319Z,11.35
2023-01-19T20:28:29.018Z,12.82
2023-01-19T20:29:38.639Z,12.88
2023-01-19T20:30:59.595Z,12.73
2023-01-19T20:32:04.537Z,12.63
2023-01-19T20:33:14.278Z,12.63
2023-01-19T20:34:39.940Z,14.98
2023-01-19T20:35:54.882Z,13.00
2023-01-19T20:37:00.341Z,11.30
2023-01-19T20:38:05.076Z,13.88
2023-01-19T20:39:13.523Z,13.30
2023-01-19T20:40:21.057Z,10.15
2023-01-19T20:41:27.275Z,10.32
2023-01-19T20:42:32.036Z,12.27
2023-01-19T20:43:37.260Z,13.48
2023-01-19T20:45:55.312Z,13.90
2023-01-19T20:47:06.553Z,14.02
2023-01-19T20:48:10.968Z,16.13
2023-01-19T20:49:21.855Z,15.80
2023-01-19T20:50:33.431Z,15.13
2023-01-19T20:51:43.717Z,20.95
2023-01-19T20:52:53.726Z,19.73
2023-01-19T20:54:00.900Z,14.35
2023-01-19T20:55:08.115Z,16.58
2023-01-19T20:56:15.561Z,16.90
2023-01-19T20:57:20.535Z,16.88
2023-01-19T20:58:25.580Z,15.88
2023-01-19T20:59:43.384Z,14.82
2023-01-19T21:00:55.836Z,13.43
2023-01-19T21:03:30.348Z,14.25
2023-01-19T21:04:46.622Z,12.35
2023-01-19T21:05:51.711Z,12.60
2023-01-19T21:07:00.191Z,14.02
2023-01-19T21:08:13.604Z,14.10
2023-01-19T21:09:16.582Z,14.43
2023-01-19T21:10:20.024Z,11.70
2023-01-19T21:11:29.585Z,15.50
2023-01-19T21:12:32.709Z,12.20
2023-01-19T21:13:37.096Z,13.90
2023-01-19T21:14:41.023Z,15.43
2023-01-19T21:15:45.042Z,17.20
2023-01-19T21:16:47.790Z,18.73
2023-01-19T21:17:51.464Z,14.52
2023-01-19T21:18:55.787Z,16.30
2023-01-19T21:21:01.990Z,16.83
2023-01-19T21:22:04.873Z,18.08
2023-01-19T21:23:08.128Z,17.52
2023-01-19T21:24:11.754Z,17.08
2023-01-19T21:25:15.045Z,16.55
2023-01-19T21:26:18.143Z,19.33
2023-01-19T21:27:21.113Z,15.18
2023-01-19T21:28:26.432Z,18.02
2023-01-19T21:29:29.616Z,18.95
2023-01-19T21:30:36.490Z,19.83
2023-01-19T21:31:40.982Z,18.13
2023-01-19T21:32:44.520Z,16.85
2023-01-19T21:33:49.362Z,15.95
2023-01-19T21:34:52.522Z,15.85
2023-01-19T21:35:57.671Z,14.60
2023-01-19T21:37:00.693Z,17.05
2023-01-19T21:38:03.464Z,14.55
2023-01-19T21:39:08.268Z,15.65
2023-01-19T21:40:11.512Z,15.77
2023-01-19T21:41:16.501Z,17.83
2023-01-19T21:42:19.066Z,17.50
2023-01-19T21:43:22.173Z,17.17
2023-01-19T21:44:24.841Z,19.08
2023-01-19T21:45:27.539Z,16.92
2023-01-19T21:46:31.349Z,18.67
2023-01-19T21:47:36.992Z,16.88
2023-01-19T21:48:39.898Z,17.45
2023-01-19T21:49:42.484Z,20.13